Time;durP1;ratioP1;P1;durP2;ratioP2;P2;SDS_P1;SDS_P2;PMS_P1;PMS_P2;Temp;Humidity;BMP_temperature;BMP_pressure;BME280_temperature;BME280_humidity;BME280_pressure;Samples;Min_cycle;Max_cycle;Signal;HPM_P1;HPM_P2
2022/06/12 00:01:41;;;;;;;6.47;4.20;;;11.30;99.90;;;;;;4401466;28;656658;-71
2022/06/12 00:04:28;;;;;;;5.80;4.20;;;11.30;99.90;;;;;;4417182;28;656828;-71
2022/06/12 00:07:15;;;;;;;7.30;4.43;;;11.20;99.90;;;;;;4400046;28;656951;-71
2022/06/12 00:10:03;;;;;;;6.07;4.33;;;11.20;99.90;;;;;;4414765;28;657793;-71
2022/06/12 00:12:50;;;;;;;7.23;4.30;;;11.20;99.90;;;;;;4410918;28;658234;-71
2022/06/12 00:15:39;;;;;;;5.57;4.57;;;11.10;99.90;;;;;;4428671;28;656555;-71
2022/06/12 00:18:26;;;;;;;12.67;4.90;;;11.10;99.90;;;;;;4405422;28;656627;-71
2022/06/12 00:21:13;;;;;;;10.23;4.90;;;11.20;99.90;;;;;;4429276;28;658157;-71
2022/06/12 00:24:02;;;;;;;6.60;4.63;;;11.10;99.90;;;;;;4412585;28;658619;-71
2022/06/12 00:26:52;;;;;;;11.07;4.80;;;11.10;99.90;;;;;;4426033;28;656287;-71
2022/06/12 00:29:39;;;;;;;7.73;4.73;;;11.00;99.90;;;;;;4404658;28;657478;-71
2022/06/12 00:32:29;;;;;;;5.50;4.10;;;11.10;99.90;;;;;;4407212;28;656716;-71
2022/06/12 00:35:16;;;;;;;7.40;4.40;;;11.00;99.90;;;;;;4406485;28;657168;-71
2022/06/12 00:38:03;;;;;;;5.67;4.60;;;11.00;99.90;;;;;;4422995;28;657062;-71
2022/06/12 00:40:51;;;;;;;10.97;5.03;;;11.00;99.90;;;;;;4407547;28;658200;-71
2022/06/12 00:43:38;;;;;;;11.00;5.73;;;11.00;99.90;;;;;;4427890;28;658260;-71
2022/06/12 00:46:41;;;;;;;7.57;5.43;;;10.90;99.90;;;;;;4411090;28;657976;-71
2022/06/12 00:49:31;;;;;;;13.17;5.30;;;11.00;99.90;;;;;;4401266;28;656564;-71
2022/06/12 00:52:22;;;;;;;5.70;4.77;;;10.90;99.90;;;;;;4400285;28;658023;-71
2022/06/12 00:55:12;;;;;;;11.67;5.07;;;10.90;99.90;;;;;;4401629;28;656971;-71
2022/06/12 00:58:03;;;;;;;6.20;5.60;;;10.90;99.90;;;;;;4404416;28;658051;-71
2022/06/12 01:00:51;;;;;;;9.23;5.87;;;10.90;99.90;;;;;;4384778;28;657537;-71
2022/06/12 01:06:33;;;;;;;7.97;5.67;;;10.90;99.90;;;;;;4428564;28;656525;-71
2022/06/12 01:06:46;;;;;;;9.20;5.23;;;10.80;99.90;;;;;;4385738;28;657061;-71
2022/06/12 01:09:36;;;;;;;6.83;5.13;;;10.80;99.90;;;;;;4426068;28;656955;-71
2022/06/12 01:12:25;;;;;;;10.17;6.07;;;10.80;99.90;;;;;;4399759;28;657441;-71
2022/06/12 01:15:15;;;;;;;8.27;5.87;;;10.80;99.90;;;;;;4398743;28;659158;-71
2022/06/12 01:18:02;;;;;;;7.63;5.73;;;10.80;99.90;;;;;;4400623;28;657823;-71
2022/06/12 01:20:54;;;;;;;12.30;6.27;;;10.80;99.90;;;;;;4421830;28;657034;-71
2022/06/12 01:23:55;;;;;;;9.33;6.47;;;10.70;99.90;;;;;;4399839;28;657854;-71
2022/06/12 01:27:09;;;;;;;9.77;6.40;;;10.80;99.90;;;;;;4402575;28;656724;-71
2022/06/12 01:30:01;;;;;;;7.77;6.50;;;10.90;99.90;;;;;;4358858;28;656557;-71
2022/06/12 01:32:52;;;;;;;9.53;6.27;;;10.90;99.90;;;;;;4404178;28;658148;-71
2022/06/12 01:35:50;;;;;;;6.67;5.40;;;10.80;99.90;;;;;;4401050;28;656483;-71
2022/06/12 01:38:39;;;;;;;12.40;5.73;;;10.70;99.90;;;;;;4382734;28;656961;-71
2022/06/12 01:41:29;;;;;;;10.27;5.65;;;10.70;99.90;;;;;;4401740;28;657527;-72
2022/06/12 01:44:19;;;;;;;10.25;5.90;;;10.60;99.90;;;;;;4398857;28;658098;-72
2022/06/12 01:47:18;;;;;;;6.40;5.63;;;10.60;99.90;;;;;;4403610;28;657661;-71
2022/06/12 01:50:10;;;;;;;7.20;6.33;;;10.60;99.90;;;;;;4379940;28;657397;-71
2022/06/12 01:53:01;;;;;;;8.50;6.43;;;10.50;99.90;;;;;;4406330;28;656684;-71
2022/06/12 01:55:50;;;;;;;6.80;6.10;;;10.50;99.90;;;;;;4407944;28;657931;-71
2022/06/12 01:58:45;;;;;;;9.80;6.60;;;10.50;99.90;;;;;;4404656;28;658172;-72
2022/06/12 02:01:36;;;;;;;10.03;6.90;;;10.50;99.90;;;;;;4402414;28;657403;-71
2022/06/12 02:04:28;;;;;;;11.57;7.00;;;10.40;99.90;;;;;;4400677;28;659069;-71
2022/06/12 02:07:22;;;;;;;8.53;7.00;;;10.50;99.90;;;;;;4382357;28;658024;-72
2022/06/12 02:10:12;;;;;;;14.40;6.87;;;10.40;99.90;;;;;;4402020;28;657065;-71
2022/06/12 02:13:14;;;;;;;7.83;6.50;;;10.40;99.90;;;;;;4400142;28;657793;-71
2022/06/12 02:16:04;;;;;;;8.07;6.43;;;10.40;99.90;;;;;;4407934;28;656223;-71
2022/06/12 02:18:53;;;;;;;10.20;6.97;;;10.30;99.90;;;;;;4405870;28;656825;-71
2022/06/12 02:21:43;;;;;;;7.90;6.57;;;10.30;99.90;;;;;;4403338;28;657634;-70
2022/06/12 02:24:31;;;;;;;8.13;6.47;;;10.30;99.90;;;;;;4405831;28;657284;-71
2022/06/12 02:27:20;;;;;;;11.43;6.47;;;10.20;99.90;;;;;;4423722;28;656539;-71
2022/06/12 02:30:10;;;;;;;10.13;6.50;;;10.20;99.90;;;;;;4398500;28;658161;-71
2022/06/12 02:32:58;;;;;;;8.77;6.53;;;10.20;99.90;;;;;;4404931;28;658051;-71
2022/06/12 02:35:48;;;;;;;11.13;6.93;;;10.10;99.90;;;;;;4406458;28;656883;-71
2022/06/12 02:38:39;;;;;;;9.97;6.63;;;10.20;99.90;;;;;;4406421;28;657745;-71
2022/06/12 02:41:28;;;;;;;11.43;7.33;;;10.20;99.90;;;;;;4405826;28;656660;-71
2022/06/12 02:44:16;;;;;;;9.90;7.50;;;10.20;99.90;;;;;;4415552;28;657587;-71
2022/06/12 02:47:06;;;;;;;9.20;7.47;;;10.20;99.90;;;;;;4424956;28;656521;-71
2022/06/12 02:49:53;;;;;;;8.40;7.30;;;10.20;99.90;;;;;;4405632;28;656720;-71
2022/06/12 02:52:43;;;;;;;12.63;8.00;;;10.20;99.90;;;;;;4406879;28;656650;-71
2022/06/12 02:55:41;;;;;;;13.90;7.80;;;10.30;99.90;;;;;;4406657;28;657491;-71
2022/06/12 02:58:30;;;;;;;9.63;7.90;;;10.20;99.90;;;;;;4403084;28;658395;-71
2022/06/12 03:01:19;;;;;;;10.37;8.17;;;10.20;99.90;;;;;;4400309;28;657634;-71
2022/06/12 03:04:07;;;;;;;9.83;7.60;;;10.20;99.90;;;;;;4405511;28;658117;-71
2022/06/12 03:06:55;;;;;;;9.67;8.30;;;10.20;99.90;;;;;;4422873;28;657025;-71
2022/06/12 03:09:42;;;;;;;10.75;8.40;;;10.30;99.90;;;;;;4430145;28;656820;-71
2022/06/12 03:12:32;;;;;;;10.50;8.40;;;10.30;99.90;;;;;;4425659;28;657854;-71
2022/06/12 03:15:33;;;;;;;10.23;8.40;;;10.40;99.90;;;;;;4405878;28;658444;-71
2022/06/12 03:18:23;;;;;;;9.67;8.50;;;10.40;99.90;;;;;;4388690;28;657936;-71
2022/06/12 03:21:16;;;;;;;9.70;7.97;;;10.40;99.90;;;;;;4420362;28;656666;-71
2022/06/12 03:24:25;;;;;;;10.73;7.97;;;10.50;99.90;;;;;;4405155;28;657383;-71
2022/06/12 03:27:19;;;;;;;10.40;8.10;;;10.50;99.90;;;;;;4378940;28;658215;-72
2022/06/12 03:30:11;;;;;;;9.93;7.87;;;10.60;99.90;;;;;;4377820;28;658298;-71
2022/06/12 03:33:03;;;;;;;9.50;8.27;;;10.70;99.90;;;;;;4422644;28;656736;-71
2022/06/12 03:35:54;;;;;;;8.40;7.20;;;10.80;99.90;;;;;;4430508;28;656496;-72
2022/06/12 03:38:44;;;;;;;8.50;7.27;;;10.90;99.90;;;;;;4397771;28;656878;-71
2022/06/12 03:41:33;;;;;;;9.07;7.47;;;11.00;99.90;;;;;;4392803;28;656576;-71
2022/06/12 03:44:23;;;;;;;8.83;7.73;;;11.10;99.90;;;;;;4389047;28;656584;-71
2022/06/12 03:47:14;;;;;;;10.27;7.07;;;11.20;99.90;;;;;;4406784;28;656298;-71
2022/06/12 03:50:03;;;;;;;10.70;7.53;;;11.30;99.90;;;;;;4407033;28;658551;-71
2022/06/12 03:52:53;;;;;;;12.13;7.70;;;11.40;99.90;;;;;;4407047;28;657463;-71
2022/06/12 03:59:03;;;;;;;8.98;7.80;;;11.60;99.90;;;;;;4341117;28;656980;-72
2022/06/12 04:01:50;;;;;;;10.87;7.80;;;11.80;99.90;;;;;;4355083;28;657059;-72
2022/06/12 04:04:39;;;;;;;8.83;7.40;;;12.00;99.90;;;;;;4401000;28;658261;-72
2022/06/12 04:07:27;;;;;;;8.60;7.13;;;12.00;99.90;;;;;;4403163;28;657941;-71
2022/06/12 04:10:16;;;;;;;7.57;6.77;;;12.20;99.90;;;;;;4423560;28;656560;-72
2022/06/12 04:13:03;;;;;;;8.00;6.40;;;12.30;99.90;;;;;;4407267;28;657702;-71
2022/06/12 04:15:55;;;;;;;11.43;6.57;;;12.50;99.90;;;;;;4406146;28;656374;-72
2022/06/12 04:18:43;;;;;;;6.93;6.00;;;12.60;99.90;;;;;;4398354;28;658460;-72
2022/06/12 04:21:34;;;;;;;7.13;6.43;;;12.70;99.90;;;;;;4419370;28;656342;-72
2022/06/12 04:24:25;;;;;;;6.50;5.90;;;12.90;99.90;;;;;;4406539;28;656627;-72
2022/06/12 04:27:16;;;;;;;8.07;6.00;;;13.20;99.90;;;;;;4406267;28;658127;-71
2022/06/12 04:30:05;;;;;;;6.50;5.50;;;13.50;99.90;;;;;;4400639;28;657960;-72
2022/06/12 04:33:02;;;;;;;7.60;5.63;;;13.70;99.90;;;;;;4404957;28;657489;-72
2022/06/12 04:35:50;;;;;;;6.37;5.77;;;13.80;99.90;;;;;;4403484;28;657045;-72
2022/06/12 04:38:39;;;;;;;7.57;5.63;;;14.00;99.90;;;;;;4402973;28;658119;-72
2022/06/12 04:41:27;;;;;;;7.00;5.23;;;14.10;99.90;;;;;;4407085;28;656874;-72
2022/06/12 04:44:16;;;;;;;7.40;5.30;;;14.20;99.90;;;;;;4424548;28;657129;-72
2022/06/12 04:47:04;;;;;;;6.53;5.90;;;14.40;99.90;;;;;;4427467;28;658164;-72
2022/06/12 04:49:52;;;;;;;7.83;6.20;;;14.50;99.90;;;;;;4405047;28;656901;-72
2022/06/12 04:52:39;;;;;;;8.90;5.70;;;14.70;99.90;;;;;;4427714;28;657081;-72
2022/06/12 04:55:28;;;;;;;10.40;6.07;;;14.80;99.90;;;;;;4404950;28;656680;-72
2022/06/12 04:58:15;;;;;;;6.50;5.90;;;14.90;99.90;;;;;;4407675;28;657660;-72
2022/06/12 05:01:02;;;;;;;12.00;6.93;;;15.00;99.90;;;;;;4430439;28;658444;-72
2022/06/12 05:03:49;;;;;;;10.07;6.90;;;15.20;99.90;;;;;;4423708;28;658473;-72
2022/06/12 05:06:36;;;;;;;7.17;6.27;;;15.30;99.90;;;;;;4402817;28;658316;-72
2022/06/12 05:09:26;;;;;;;7.23;6.20;;;15.50;99.90;;;;;;4423504;28;656584;-72
2022/06/12 05:12:14;;;;;;;8.00;6.20;;;15.70;99.90;;;;;;4404848;28;657480;-72
2022/06/12 05:15:01;;;;;;;8.87;6.30;;;15.80;99.90;;;;;;4405530;28;657518;-72
2022/06/12 05:17:49;;;;;;;6.30;5.70;;;16.00;99.90;;;;;;4423464;28;657023;-72
2022/06/12 05:20:36;;;;;;;7.97;5.20;;;16.20;99.90;;;;;;4406833;28;656938;-71
2022/06/12 05:23:24;;;;;;;9.23;5.00;;;16.50;99.90;;;;;;4424201;28;656842;-71
2022/06/12 05:26:12;;;;;;;7.20;5.50;;;16.60;99.90;;;;;;4407770;28;656481;-70
2022/06/12 05:29:00;;;;;;;7.43;4.53;;;16.70;99.90;;;;;;4427764;28;656184;-70
2022/06/12 05:31:47;;;;;;;5.17;4.33;;;16.80;99.90;;;;;;4401899;28;657669;-69
2022/06/12 05:34:35;;;;;;;7.57;5.83;;;17.00;99.90;;;;;;4423932;28;656850;-69
2022/06/12 05:37:22;;;;;;;9.27;6.03;;;17.20;99.90;;;;;;4429017;28;657534;-69
2022/06/12 05:40:12;;;;;;;9.90;6.83;;;17.40;99.90;;;;;;4420768;28;656470;-69
2022/06/12 05:43:00;;;;;;;10.90;6.50;;;17.60;99.90;;;;;;4403857;28;656709;-69
2022/06/12 05:45:48;;;;;;;10.50;6.60;;;17.70;99.90;;;;;;4395468;28;658849;-70
2022/06/12 05:48:35;;;;;;;11.37;6.63;;;17.90;99.90;;;;;;4407494;28;657824;-69
2022/06/12 05:51:23;;;;;;;10.40;6.40;;;18.00;99.90;;;;;;4430507;28;657739;-69
2022/06/12 05:54:11;;;;;;;11.30;5.87;;;18.10;99.90;;;;;;4410798;28;657418;-69
2022/06/12 05:56:58;;;;;;;10.80;5.80;;;18.20;99.90;;;;;;4428587;28;658943;-69
2022/06/12 05:59:45;;;;;;;9.57;5.80;;;18.50;99.90;;;;;;4411240;28;657604;-69
2022/06/12 06:02:36;;;;;;;7.03;4.73;;;18.50;99.90;;;;;;4428410;28;656752;-69
2022/06/12 06:05:23;;;;;;;9.57;4.93;;;18.60;99.90;;;;;;4407594;28;658392;-69
2022/06/12 06:08:11;;;;;;;6.30;4.70;;;18.80;99.90;;;;;;4404950;28;656028;-69
2022/06/12 06:10:58;;;;;;;9.33;4.67;;;19.00;99.90;;;;;;4425409;28;658488;-69
2022/06/12 06:13:46;;;;;;;7.60;5.00;;;19.10;99.90;;;;;;4401500;28;657266;-69
2022/06/12 06:16:33;;;;;;;14.00;5.50;;;19.30;99.90;;;;;;4426706;28;657420;-69
2022/06/12 06:19:22;;;;;;;7.50;4.80;;;19.10;99.90;;;;;;4407994;28;657792;-69
2022/06/12 06:22:09;;;;;;;11.47;5.20;;;19.20;99.90;;;;;;4467807;28;656698;-65
2022/06/12 06:24:56;;;;;;;7.37;4.60;;;19.40;99.90;;;;;;4406667;28;657605;-65
2022/06/12 06:27:43;;;;;;;8.00;4.83;;;19.20;99.90;;;;;;4429640;28;657424;-65
2022/06/12 06:30:31;;;;;;;8.97;5.27;;;19.40;99.90;;;;;;4407383;28;657219;-65
2022/06/12 06:33:18;;;;;;;10.37;5.23;;;19.20;99.90;;;;;;4477952;28;657225;-65
2022/06/12 06:36:08;;;;;;;6.70;4.53;;;19.40;99.90;;;;;;4418303;28;657629;-65
2022/06/12 06:38:56;;;;;;;6.70;4.57;;;19.60;99.90;;;;;;4401073;28;656606;-65
2022/06/12 06:41:43;;;;;;;9.93;5.63;;;19.80;99.90;;;;;;4428262;28;658179;-65
2022/06/12 06:47:35;;;;;;;6.83;2.80;;;19.80;99.90;;;;;;4430492;28;656384;-65
2022/06/12 06:50:22;;;;;;;6.47;2.70;;;20.30;99.90;;;;;;4434567;28;657457;-66
2022/06/12 06:53:11;;;;;;;7.70;2.63;;;20.50;99.90;;;;;;4423592;28;656547;-66
2022/06/12 06:55:59;;;;;;;5.57;2.50;;;20.50;99.90;;;;;;4431392;28;657147;-65
2022/06/12 06:58:46;;;;;;;5.23;2.57;;;20.60;99.50;;;;;;4409767;28;656370;-65
2022/06/12 07:01:34;;;;;;;4.37;2.03;;;20.60;99.90;;;;;;4428258;28;657073;-65
2022/06/12 07:04:21;;;;;;;4.33;2.30;;;20.70;99.30;;;;;;4409238;28;656601;-65
2022/06/12 07:07:08;;;;;;;4.67;2.17;;;20.80;93.50;;;;;;4425921;28;657703;-65
2022/06/12 07:09:56;;;;;;;5.60;1.70;;;21.00;93.00;;;;;;4408913;28;657525;-65
2022/06/12 07:12:44;;;;;;;7.07;2.27;;;21.20;94.30;;;;;;4427049;28;656468;-65
2022/06/12 07:15:32;;;;;;;6.03;2.30;;;21.20;99.90;;;;;;4407710;28;657375;-65
2022/06/12 07:18:19;;;;;;;5.87;1.73;;;21.20;91.50;;;;;;4426326;28;656559;-65
2022/06/12 07:21:06;;;;;;;5.37;1.80;;;21.40;88.80;;;;;;4405425;28;656921;-65
2022/06/12 07:23:53;;;;;;;6.73;1.93;;;21.50;91.50;;;;;;4426555;28;656961;-65
2022/06/12 07:26:43;;;;;;;4.50;1.67;;;21.50;80.70;;;;;;4407509;28;656315;-65
2022/06/12 07:29:31;;;;;;;3.27;1.90;;;21.30;83.30;;;;;;4405034;28;657583;-65
2022/06/12 07:32:18;;;;;;;8.90;1.90;;;21.40;82.40;;;;;;4428989;28;657370;-65
2022/06/12 07:35:06;;;;;;;5.07;1.70;;;21.50;82.50;;;;;;4419094;28;656878;-65
2022/06/12 07:37:53;;;;;;;4.10;1.80;;;21.80;82.00;;;;;;4427079;28;657615;-65
2022/06/12 07:40:43;;;;;;;6.63;1.70;;;21.90;78.10;;;;;;4410121;28;657031;-65
2022/06/12 07:43:33;;;;;;;4.17;1.47;;;22.00;78.20;;;;;;4407891;28;657395;-65
2022/06/12 07:46:20;;;;;;;3.23;1.47;;;22.50;86.90;;;;;;4408993;28;656509;-65
2022/06/12 07:49:07;;;;;;;3.67;1.50;;;22.60;78.00;;;;;;4428140;28;657906;-65
2022/06/12 07:51:55;;;;;;;8.20;1.70;;;23.00;78.70;;;;;;4426192;28;658304;-65
2022/06/12 07:54:42;;;;;;;2.80;1.40;;;22.80;77.00;;;;;;4432111;28;657850;-65
2022/06/12 07:57:29;;;;;;;5.03;1.73;;;22.80;82.20;;;;;;4428867;28;656895;-65
2022/06/12 08:00:19;;;;;;;3.43;1.70;;;23.00;77.00;;;;;;4410915;28;657926;-65
2022/06/12 08:03:06;;;;;;;5.50;1.60;;;23.10;74.60;;;;;;4405132;28;656777;-65
2022/06/12 08:05:53;;;;;;;4.57;1.77;;;23.20;72.80;;;;;;4427326;28;657302;-65
2022/06/12 08:08:40;;;;;;;3.78;1.50;;;23.20;73.60;;;;;;4406022;28;656798;-65
2022/06/12 08:11:28;;;;;;;5.73;1.60;;;23.30;69.70;;;;;;4419101;28;658535;-65
2022/06/12 08:14:15;;;;;;;4.90;1.60;;;23.60;77.10;;;;;;4412794;28;656736;-64
2022/06/12 08:17:05;;;;;;;6.05;2.03;;;23.50;72.50;;;;;;4419909;28;657787;-65
2022/06/12 08:23:00;;;;;;;5.10;1.98;;;23.40;69.20;;;;;;4404179;28;657223;-65
2022/06/12 08:25:47;;;;;;;3.78;1.98;;;24.10;75.20;;;;;;4400247;28;658117;-65
2022/06/12 08:28:36;;;;;;;3.90;1.73;;;23.90;73.80;;;;;;4424461;28;656754;-65
2022/06/12 08:31:25;;;;;;;3.75;1.90;;;23.90;74.70;;;;;;4411073;28;657428;-65
2022/06/12 08:34:15;;;;;;;3.50;1.70;;;24.00;73.90;;;;;;4388447;28;658511;-65
2022/06/12 08:37:03;;;;;;;3.53;1.60;;;23.80;71.20;;;;;;4390185;28;657529;-65
2022/06/12 08:39:51;;;;;;;2.85;1.70;;;23.70;74.50;;;;;;4393034;28;656817;-66
2022/06/12 08:42:41;;;;;;;3.83;1.52;;;24.60;77.80;;;;;;4414847;28;658060;-65
2022/06/12 08:45:30;;;;;;;2.60;1.55;;;24.70;76.80;;;;;;4391358;28;658703;-66
2022/06/12 08:48:23;;;;;;;3.35;1.60;;;25.60;76.40;;;;;;4387778;28;657607;-66
2022/06/12 08:51:14;;;;;;;2.80;1.42;;;25.60;71.30;;;;;;4375249;28;656984;-66
2022/06/12 08:54:05;;;;;;;3.05;2.13;;;24.90;70.80;;;;;;4391939;28;657021;-66
2022/06/12 08:56:55;;;;;;;3.75;1.90;;;24.90;72.60;;;;;;4392886;28;657652;-66
2022/06/12 08:59:44;;;;;;;6.95;1.98;;;24.90;72.90;;;;;;4393385;28;657066;-66
2022/06/12 09:02:33;;;;;;;2.75;1.60;;;24.10;70.20;;;;;;4405804;28;656821;-65
2022/06/12 09:05:22;;;;;;;5.05;2.15;;;23.80;75.00;;;;;;4424293;28;656420;-66
2022/06/12 09:08:14;;;;;;;3.05;2.08;;;23.80;78.40;;;;;;4429874;28;657349;-65
2022/06/12 09:11:05;;;;;;;5.32;1.85;;;23.90;80.50;;;;;;4410619;28;656993;-65
2022/06/12 09:13:57;;;;;;;2.67;1.65;;;24.00;77.40;;;;;;4410469;28;658040;-65
2022/06/12 09:16:48;;;;;;;2.65;1.60;;;23.80;70.20;;;;;;4406568;28;656804;-65
2022/06/12 09:19:39;;;;;;;4.97;1.63;;;23.80;71.10;;;;;;4383116;28;656633;-65
2022/06/12 09:22:29;;;;;;;3.92;1.50;;;23.60;70.50;;;;;;4392467;28;656964;-65
2022/06/12 09:25:20;;;;;;;2.53;1.40;;;23.30;68.30;;;;;;4399864;28;656744;-65
2022/06/12 09:28:10;;;;;;;2.67;1.58;;;23.50;72.70;;;;;;4410648;28;657892;-65
2022/06/12 09:31:01;;;;;;;3.38;2.08;;;23.70;70.90;;;;;;4410775;28;658034;-66
2022/06/12 09:33:51;;;;;;;2.47;1.73;;;24.70;72.00;;;;;;4406840;28;656743;-66
2022/06/12 09:36:56;;;;;;;2.40;1.60;;;25.40;67.00;;;;;;4403066;28;657996;-66
2022/06/12 09:39:46;;;;;;;3.70;1.55;;;25.80;71.70;;;;;;4390380;28;657158;-65
2022/06/12 09:42:41;;;;;;;2.70;1.50;;;25.90;68.50;;;;;;4389588;28;658065;-66
2022/06/12 09:45:31;;;;;;;4.90;1.63;;;25.50;67.00;;;;;;4406583;28;657198;-66
2022/06/12 09:48:22;;;;;;;4.55;1.58;;;25.80;74.80;;;;;;4405333;28;657504;-66
2022/06/12 09:51:21;;;;;;;3.50;1.60;;;25.60;66.30;;;;;;4408537;28;657012;-66
2022/06/12 09:54:28;;;;;;;1.70;1.50;;;24.90;68.00;;;;;;4400915;28;657015;-65
2022/06/12 09:57:21;;;;;;;3.47;1.55;;;24.00;63.20;;;;;;4388749;28;656540;-66
2022/06/12 10:00:16;;;;;;;3.13;1.92;;;23.80;68.30;;;;;;4401984;28;658148;-65
2022/06/12 10:03:06;;;;;;;3.05;1.65;;;23.70;65.70;;;;;;4408568;28;657249;-66
2022/06/12 10:05:55;;;;;;;3.47;1.70;;;23.00;77.10;;;;;;4408481;28;657362;-65
2022/06/12 10:08:49;;;;;;;4.18;1.90;;;23.00;78.40;;;;;;4401991;28;657514;-65
2022/06/12 10:11:38;;;;;;;2.28;1.60;;;23.10;82.50;;;;;;4384372;28;656995;-65
2022/06/12 10:14:27;;;;;;;3.28;1.55;;;23.00;85.10;;;;;;4416499;28;656670;-65
2022/06/12 10:17:18;;;;;;;4.78;1.90;;;23.00;84.00;;;;;;4427656;28;658012;-65
2022/06/12 10:20:08;;;;;;;3.97;1.70;;;23.30;84.30;;;;;;4400543;28;656968;-65
2022/06/12 10:22:55;;;;;;;2.60;1.40;;;23.30;91.40;;;;;;4417045;28;657420;-65
2022/06/12 10:25:45;;;;;;;3.17;1.70;;;23.20;80.40;;;;;;4428407;28;658067;-66
2022/06/12 10:28:34;;;;;;;4.75;1.83;;;23.40;75.10;;;;;;4411862;28;657239;-65
2022/06/12 10:31:21;;;;;;;3.90;1.83;;;23.50;71.50;;;;;;4397704;28;656507;-65
2022/06/12 10:34:16;;;;;;;4.05;1.90;;;23.70;70.00;;;;;;4422572;28;656696;-65
2022/06/12 10:37:11;;;;;;;2.75;1.65;;;23.90;77.40;;;;;;4413886;28;657356;-66
2022/06/12 10:40:01;;;;;;;3.40;1.48;;;23.70;77.10;;;;;;4401303;28;656955;-65
2022/06/12 10:42:50;;;;;;;3.33;1.80;;;23.60;74.30;;;;;;4397269;28;656815;-65
2022/06/12 10:45:39;;;;;;;2.00;1.50;;;24.30;76.40;;;;;;4401591;28;657801;-65
2022/06/12 10:48:29;;;;;;;2.35;1.80;;;24.40;73.50;;;;;;4408243;28;656903;-65
2022/06/12 10:51:24;;;;;;;3.53;1.92;;;24.30;78.90;;;;;;4406062;28;656921;-65
2022/06/12 10:54:14;;;;;;;2.50;1.70;;;24.70;78.00;;;;;;4407406;28;656927;-65
2022/06/12 10:57:07;;;;;;;2.88;1.70;;;25.00;67.00;;;;;;4406727;28;656495;-65
2022/06/12 10:59:56;;;;;;;4.22;1.40;;;25.10;70.40;;;;;;4391678;28;657615;-65
2022/06/12 11:02:51;;;;;;;4.28;1.88;;;25.70;70.40;;;;;;4418009;28;656154;-65
2022/06/12 11:05:59;;;;;;;2.15;1.70;;;25.50;69.10;;;;;;4390520;28;657263;-66
2022/06/12 11:09:12;;;;;;;3.85;1.42;;;25.10;70.90;;;;;;4400308;28;657227;-65
2022/06/12 11:12:34;;;;;;;1.98;1.58;;;24.60;69.40;;;;;;4395830;28;656908;-65
2022/06/12 11:15:32;;;;;;;3.50;1.70;;;24.00;70.90;;;;;;4408148;28;656746;-65
2022/06/12 11:18:24;;;;;;;3.15;1.70;;;24.00;72.90;;;;;;4401441;28;656923;-65
2022/06/12 11:21:14;;;;;;;3.63;1.70;;;24.00;73.20;;;;;;4405619;28;657511;-65
2022/06/12 11:24:11;;;;;;;2.97;1.75;;;24.00;81.90;;;;;;4389595;28;656444;-66
2022/06/12 11:27:14;;;;;;;2.35;1.73;;;24.10;83.90;;;;;;4378945;28;657027;-65
2022/06/12 11:30:07;;;;;;;4.32;1.98;;;24.10;82.40;;;;;;4379310;28;656361;-65
2022/06/12 11:33:02;;;;;;;6.03;2.03;;;25.00;75.90;;;;;;4375677;28;657441;-65
2022/06/12 11:35:52;;;;;;;4.63;1.77;;;25.70;66.50;;;;;;4374880;28;657071;-66
2022/06/12 11:38:50;;;;;;;3.38;1.65;;;26.30;65.80;;;;;;4373269;28;657372;-66
2022/06/12 11:41:45;;;;;;;2.42;1.73;;;26.20;68.50;;;;;;4371275;28;656692;-66
2022/06/12 11:44:45;;;;;;;7.05;1.63;;;26.20;68.50;;;;;;4355308;28;657853;-66
2022/06/12 11:47:39;;;;;;;5.22;1.88;;;26.80;59.60;;;;;;4377226;28;656676;-65
2022/06/12 11:50:30;;;;;;;2.42;1.60;;;27.40;62.60;;;;;;4376680;28;656920;-66
2022/06/12 11:53:30;;;;;;;3.92;1.52;;;27.30;58.80;;;;;;4380243;28;656337;-66
2022/06/12 11:56:21;;;;;;;3.50;1.60;;;27.50;69.30;;;;;;4355895;28;657739;-66
2022/06/12 11:59:15;;;;;;;3.75;1.60;;;28.70;57.90;;;;;;4375130;28;658170;-66
2022/06/12 12:02:08;;;;;;;4.72;1.70;;;28.20;61.30;;;;;;4360848;28;656935;-66
2022/06/12 12:05:07;;;;;;;5.05;1.40;;;27.80;59.80;;;;;;4381064;28;656403;-66
2022/06/12 12:07:59;;;;;;;2.92;1.35;;;27.50;62.70;;;;;;4381840;28;656376;-66
2022/06/12 12:10:48;;;;;;;4.93;1.65;;;28.20;60.30;;;;;;4387649;28;657938;-66
2022/06/12 12:13:42;;;;;;;3.97;1.33;;;28.40;63.30;;;;;;4388889;28;656651;-66
2022/06/12 12:16:32;;;;;;;3.33;1.50;;;28.50;57.30;;;;;;4384630;28;656665;-66
2022/06/12 12:19:21;;;;;;;5.68;1.73;;;28.60;56.50;;;;;;4385109;28;656997;-66
2022/06/12 12:22:10;;;;;;;3.20;1.45;;;28.50;58.20;;;;;;4388028;28;658729;-67
2022/06/12 12:25:00;;;;;;;4.25;1.50;;;29.40;56.60;;;;;;4386121;28;657552;-66
2022/06/12 12:27:48;;;;;;;2.33;1.38;;;29.70;60.20;;;;;;4389086;28;656419;-66
2022/06/12 12:30:38;;;;;;;2.92;1.45;;;29.00;55.80;;;;;;4395119;28;656563;-66
2022/06/12 12:33:28;;;;;;;4.50;1.75;;;27.90;55.60;;;;;;4386669;28;656812;-66
2022/06/12 12:42:30;;;;;;;3.53;1.60;;;26.20;62.50;;;;;;4386015;28;656977;-65
2022/06/12 12:45:29;;;;;;;15.98;2.78;;;25.50;62.00;;;;;;4374812;28;657429;-65
2022/06/12 12:48:16;;;;;;;4.40;1.48;;;25.20;63.40;;;;;;4350531;28;657947;-65
2022/06/12 12:51:04;;;;;;;2.85;1.60;;;25.70;65.10;;;;;;4399708;28;658450;-65
2022/06/12 12:53:53;;;;;;;4.65;1.30;;;25.30;61.70;;;;;;4377186;28;657625;-65
2022/06/12 12:56:52;;;;;;;2.80;1.55;;;25.20;67.90;;;;;;4380853;28;656771;-65
2022/06/12 12:59:42;;;;;;;1.90;1.50;;;24.90;63.90;;;;;;4377429;28;657038;-66
2022/06/12 13:02:30;;;;;;;3.95;1.70;;;25.00;66.30;;;;;;4387348;28;656919;-65
2022/06/12 13:05:18;;;;;;;10.23;2.20;;;24.90;70.80;;;;;;4382899;28;657666;-65
2022/06/12 13:08:18;;;;;;;3.63;1.48;;;24.40;66.60;;;;;;4387964;28;657731;-65
2022/06/12 13:11:12;;;;;;;2.78;1.50;;;24.50;81.00;;;;;;4357529;28;656437;-65
2022/06/12 13:14:24;;;;;;;7.40;1.58;;;24.50;81.60;;;;;;4380783;28;656609;-64
2022/06/12 13:17:19;;;;;;;5.28;1.77;;;24.40;96.80;;;;;;4355406;28;657359;-65
2022/06/12 13:20:25;;;;;;;2.22;1.65;;;24.50;90.40;;;;;;4357609;28;657398;-65
2022/06/12 13:23:23;;;;;;;5.68;1.92;;;24.40;97.20;;;;;;4358658;28;657298;-65
2022/06/12 13:26:12;;;;;;;2.95;1.40;;;24.60;89.10;;;;;;4365414;28;656739;-65
2022/06/12 13:29:00;;;;;;;2.33;1.40;;;24.50;99.90;;;;;;4405524;28;656483;-64
2022/06/12 13:31:57;;;;;;;3.35;1.70;;;24.50;93.50;;;;;;4388550;28;657892;-64
2022/06/12 13:34:53;;;;;;;4.80;1.52;;;24.70;85.20;;;;;;4376105;28;657240;-65
2022/06/12 13:37:41;;;;;;;3.17;1.50;;;24.80;87.20;;;;;;4366235;28;656956;-64
2022/06/12 13:40:32;;;;;;;3.97;1.67;;;24.90;88.40;;;;;;4413862;28;659726;-64
2022/06/12 13:43:20;;;;;;;3.22;1.40;;;25.30;85.90;;;;;;4389671;28;657013;-64
2022/06/12 13:46:24;;;;;;;2.50;1.60;;;26.20;73.70;;;;;;4385445;28;656805;-65
2022/06/12 13:49:15;;;;;;;56.30;3.42;;;26.50;68.50;;;;;;4383521;28;658306;-64
2022/06/12 13:52:05;;;;;;;4.15;2.35;;;27.30;61.30;;;;;;4395586;28;659121;-64
2022/06/12 13:54:52;;;;;;;19.60;2.65;;;25.90;59.60;;;;;;4391652;28;658593;-64
2022/06/12 13:57:40;;;;;;;39.95;3.30;;;26.40;62.70;;;;;;4425207;28;658565;-64
2022/06/12 14:00:31;;;;;;;4.95;1.80;;;26.70;63.10;;;;;;4403608;28;659110;-64
2022/06/12 14:03:19;;;;;;;3.85;1.65;;;26.40;58.20;;;;;;4412001;28;657520;-64
2022/06/12 14:06:07;;;;;;;4.95;1.60;;;25.70;64.10;;;;;;4428010;28;656494;-64
2022/06/12 14:08:59;;;;;;;5.78;1.90;;;25.40;75.70;;;;;;4445497;28;656410;-64
2022/06/12 14:11:46;;;;;;;2.65;1.75;;;25.40;70.30;;;;;;4424278;28;656596;-64
2022/06/12 14:14:37;;;;;;;2.53;1.70;;;25.00;77.50;;;;;;4441632;28;657629;-63
2022/06/12 14:17:26;;;;;;;5.57;1.50;;;24.70;75.60;;;;;;4423205;28;658164;-64
2022/06/12 14:20:23;;;;;;;3.58;1.70;;;24.50;79.00;;;;;;4416716;28;657504;-64
2022/06/12 14:23:19;;;;;;;3.15;1.70;;;24.30;82.60;;;;;;4424704;28;656816;-64
2022/06/12 14:26:25;;;;;;;2.70;1.67;;;24.10;88.30;;;;;;4397549;28;657332;-64
2022/06/12 14:29:32;;;;;;;5.47;1.70;;;23.90;89.10;;;;;;4396133;28;657241;-63
2022/06/12 14:32:23;;;;;;;3.17;1.80;;;23.70;91.60;;;;;;4416019;28;657378;-64
2022/06/12 14:35:17;;;;;;;3.05;1.50;;;23.60;92.60;;;;;;4427958;28;657889;-64
2022/06/12 14:38:04;;;;;;;3.83;1.90;;;23.40;99.90;;;;;;4419083;28;656797;-63
2022/06/12 14:40:51;;;;;;;3.22;1.60;;;23.30;99.90;;;;;;4424799;28;657032;-63
2022/06/12 14:43:38;;;;;;;5.63;1.90;;;23.00;99.90;;;;;;4442639;28;658528;-63
2022/06/12 14:46:27;;;;;;;3.15;1.60;;;22.80;99.90;;;;;;4434357;28;657416;-63
2022/06/12 14:49:20;;;;;;;3.90;2.08;;;22.70;99.90;;;;;;4456233;28;656506;-63
2022/06/12 14:52:07;;;;;;;5.32;2.30;;;22.70;99.90;;;;;;4402655;28;657076;-63